Terminal Aerodrome Forecast
Issued by NWS St Louis, MO

Home | Current Version | Previous Version | Text Only | Print | Product List | Glossary On
Versions: 1 2 3 4 5 6 7 8 9 10 11 12 13 14 15 16 17 18 19 20 21 22 23 24 25 26 27 28 29 30
000
FTUS43 KLSX 280900 AAA
TAFSTL
TAF AMD
KSTL 280903Z 2809/2912 VRB04KT P6SM SCT150
      TEMPO 2809/2812 5SM BR
     FM281600 12007KT P6SM SCT040 BKN250
     FM282000 13008KT P6SM VCTS SCT045CB BKN120
     FM290100 12006KT P6SM SCT120 BKN250=

USA.gov is the U.S. government's official web portal to all federal, state and local government web resources and services.